Time;durP1;ratioP1;P1;durP2;ratioP2;P2;SDS_P1;SDS_P2;PMS_P1;PMS_P2;Temp;Humidity;BMP_temperature;BMP_pressure;BME280_temperature;BME280_humidity;BME280_pressure;Samples;Min_cycle;Max_cycle;Signal;HPM_P1;HPM_P2
2022/10/02 00:09:06;;;;;;;16.75;9.35;;;;;;;17.35;100.00;99815.56;31830119;27;20051;-73
2022/10/02 00:24:16;;;;;;;23.73;10.93;;;;;;;17.36;100.00;99814.31;31848989;27;20051;-73
2022/10/02 00:39:37;;;;;;;22.50;11.82;;;;;;;17.31;100.00;99820.47;31854699;27;20075;-72
2022/10/02 00:55:03;;;;;;;26.08;13.90;;;;;;;17.20;100.00;99823.00;31866369;27;20086;-72
2022/10/02 01:10:06;;;;;;;21.27;13.05;;;;;;;17.21;100.00;99799.09;31863467;27;20045;-73
2022/10/02 01:25:08;;;;;;;24.80;14.45;;;;;;;17.21;100.00;99793.59;31868079;27;20050;-72
2022/10/02 01:40:24;;;;;;;25.42;15.25;;;;;;;17.28;100.00;99777.50;31858439;27;20166;-72
2022/10/02 01:56:04;;;;;;;32.38;14.95;;;;;;;17.36;100.00;99751.22;31860401;27;20456;-72
2022/10/02 02:11:10;;;;;;;24.23;13.73;;;;;;;17.32;100.00;99723.22;31828389;27;20112;-73
2022/10/02 02:26:14;;;;;;;17.73;11.75;;;;;;;17.29;100.00;99691.25;31857032;27;20059;-74
2022/10/02 02:41:23;;;;;;;12.07;8.80;;;;;;;17.16;100.00;99665.34;31848950;27;20446;-72
2022/10/02 02:56:27;;;;;;;10.90;7.60;;;;;;;17.02;100.00;99642.91;31854044;27;20389;-73
2022/10/02 03:11:52;;;;;;;9.52;6.60;;;;;;;17.02;100.00;99622.97;31840065;27;20043;-72
2022/10/02 03:26:59;;;;;;;;;;;;;;;16.91;100.00;99614.56;31853949;27;20095;-70
2022/10/02 03:42:01;;;;;;;10.23;6.60;;;;;;;16.77;100.00;99585.91;31843191;27;19919;-72
2022/10/02 03:57:07;;;;;;;10.88;7.30;;;;;;;16.79;100.00;99550.56;31845314;27;20086;-72
2022/10/02 04:12:33;;;;;;;10.43;6.82;;;;;;;16.89;100.00;99564.94;31846447;27;20046;-71
2022/10/02 04:27:46;;;;;;;12.35;7.90;;;;;;;17.04;100.00;99560.19;31846685;27;20081;-72
2022/10/02 04:43:10;;;;;;;14.23;8.07;;;;;;;17.18;100.00;99544.94;31842508;27;20047;-70
2022/10/02 04:58:27;;;;;;;13.68;8.40;;;;;;;17.40;100.00;99537.03;31845534;27;20559;-72
2022/10/02 05:13:32;;;;;;;11.70;7.63;;;;;;;17.52;100.00;99499.50;31839755;27;20682;-72
2022/10/02 05:28:57;;;;;;;;;;;;;;;17.69;100.00;99497.78;31864362;27;20079;-70
2022/10/02 05:44:06;;;;;;;12.43;8.18;;;;;;;17.80;100.00;99464.94;31858366;27;19927;-72
2022/10/02 05:59:08;;;;;;;13.35;8.25;;;;;;;17.97;100.00;99432.91;31863078;27;20047;-72
2022/10/02 06:14:19;;;;;;;16.05;8.65;;;;;;;18.06;100.00;99421.78;31855662;27;20094;-72
2022/10/02 06:29:28;;;;;;;14.00;8.48;;;;;;;18.21;100.00;99398.91;31845852;27;20063;-73
2022/10/02 06:44:40;;;;;;;13.93;8.80;;;;;;;18.42;100.00;99374.88;31850619;27;20051;-72
2022/10/02 06:59:56;;;;;;;15.30;9.43;;;;;;;18.51;100.00;99378.16;31847970;27;20438;-73
2022/10/02 07:15:09;;;;;;;15.77;9.73;;;;;;;18.37;100.00;99346.84;31849412;27;20046;-74
2022/10/02 07:30:15;;;;;;;14.20;9.50;;;;;;;18.32;100.00;99352.31;31845976;27;20059;-73
2022/10/02 07:45:40;;;;;;;19.02;11.27;;;;;;;18.15;100.00;99319.22;31847861;27;20443;-73
2022/10/02 08:00:54;;;;;;;24.67;13.40;;;;;;;18.01;100.00;99271.44;31845585;27;20120;-73
2022/10/02 08:15:56;;;;;;;24.80;13.93;;;;;;;17.88;100.00;99242.91;31844274;27;20088;-74
2022/10/02 08:30:58;;;;;;;24.08;11.65;;;;;;;17.82;100.00;99239.34;31852636;27;20058;-73
2022/10/02 08:46:24;;;;;;;25.55;12.95;;;;;;;17.63;100.00;99274.63;31844300;27;20047;-74
2022/10/02 09:01:26;;;;;;;10.05;6.10;;;;;;;17.20;100.00;99255.28;31872294;27;20050;-73
2022/10/02 09:17:04;;;;;;;13.52;4.57;;;;;;;16.85;100.00;99246.41;31871715;27;20047;-72
2022/10/02 09:32:27;;;;;;;7.90;4.43;;;;;;;16.74;100.00;99180.53;31839472;27;20039;-75
2022/10/02 09:48:10;;;;;;;9.55;4.25;;;;;;;16.73;100.00;99124.97;31859534;27;20393;-76
2022/10/02 10:03:21;;;;;;;8.88;5.55;;;;;;;16.70;100.00;99110.25;31846215;27;20062;-76
2022/10/02 10:18:40;;;;;;;3.92;2.85;;;;;;;16.77;100.00;99062.44;31845443;27;20047;-73
2022/10/02 10:34:20;;;;;;;3.30;2.97;;;;;;;16.88;100.00;98982.31;31863444;27;20103;-75
2022/10/02 10:49:34;;;;;;;6.93;3.17;;;;;;;17.04;100.00;98937.81;31844307;27;20086;-75
2022/10/02 11:05:09;;;;;;;8.13;4.82;;;;;;;16.98;100.00;98931.56;31851902;27;20553;-75
2022/10/02 11:20:29;;;;;;;5.07;2.77;;;;;;;16.87;100.00;98926.00;31862762;27;20093;-74
2022/10/02 11:35:51;;;;;;;1.70;1.60;;;;;;;16.49;100.00;98900.56;31850791;27;20113;-75
2022/10/02 11:51:30;;;;;;;4.60;2.20;;;;;;;16.35;100.00;98865.84;31851599;27;20055;-74
2022/10/02 12:06:59;;;;;;;0.73;0.73;;;;;;;16.42;100.00;98853.69;31847599;27;20096;-74
2022/10/02 12:37:37;;;;;;;14.02;1.95;;;;;;;16.46;100.00;98805.69;31867266;27;20054;-74
2022/10/02 12:52:57;;;;;;;2.65;2.08;;;;;;;16.41;100.00;98798.16;31867444;27;20659;-73
2022/10/02 13:08:14;;;;;;;1.95;1.38;;;;;;;16.37;100.00;98786.69;31864497;27;20116;-76
2022/10/02 13:23:34;;;;;;;2.10;2.00;;;;;;;16.35;100.00;98768.00;31860449;27;20051;-74
2022/10/02 13:39:22;;;;;;;3.90;3.60;;;;;;;16.28;100.00;98743.84;31872922;27;20468;-74
2022/10/02 13:54:42;;;;;;;13.05;3.85;;;;;;;16.22;100.00;98753.25;31854849;27;20484;-75
2022/10/02 14:09:56;;;;;;;1.70;1.60;;;;;;;15.86;100.00;98766.44;31843494;27;20710;-73
2022/10/02 14:25:21;;;;;;;4.13;3.07;;;;;;;15.61;100.00;98772.69;31869320;27;20055;-74
2022/10/02 14:41:41;;;;;;;1.90;1.50;;;;;;;-144.18;100.00;69644.63;31861132;27;20046;-73
2022/10/02 14:57:27;;;;;;;1.57;1.47;;;;;;;-144.18;100.00;69644.63;31843195;27;20071;-72
2022/10/02 15:12:47;;;;;;;2.90;1.30;;;;;;;-144.18;100.00;69644.63;31858024;27;20431;-74
2022/10/02 15:28:05;;;;;;;0.20;0.20;;;;;;;-144.18;100.00;69644.63;31855799;27;20055;-72
2022/10/02 15:44:17;;;;;;;1.58;1.10;;;;;;;-144.18;100.00;69644.63;31850853;27;20539;-74
2022/10/02 15:59:43;;;;;;;0.60;0.60;;;;;;;-144.18;100.00;69644.63;31839922;27;20047;-73
2022/10/02 16:14:51;;;;;;;0.30;0.30;;;;;;;-144.18;100.00;69644.63;31836722;27;20051;-82
2022/10/02 16:30:15;;;;;;;0.30;0.30;;;;;;;-144.18;100.00;69644.63;31837796;27;20487;-73
2022/10/02 16:45:28;;;;;;;2.08;0.75;;;;;;;-144.18;100.00;69644.63;31830267;27;20512;-76
2022/10/02 17:02:04;;;;;;;3.97;3.67;;;;;;;-144.18;100.00;69644.63;31828158;27;20444;-74
2022/10/02 17:18:15;;;;;;;;;;;;;;;-144.18;0.00;69644.63;31777428;27;20035;-72
2022/10/02 17:33:21;;;;;;;9.37;4.37;;;;;;;-144.18;100.00;69644.63;31866798;27;19919;-71
2022/10/02 17:48:38;;;;;;;15.13;4.33;;;;;;;-144.18;100.00;69644.63;31846048;27;20109;-73
2022/10/02 18:03:58;;;;;;;7.47;3.43;;;;;;;19.16;nan;96771.13;31846947;27;20075;-73
2022/10/02 18:19:17;;;;;;;13.47;7.03;;;;;;;18.50;nan;96947.97;31848621;27;20054;-72
2022/10/02 18:34:43;;;;;;;7.37;3.47;;;;;;;18.15;nan;97193.16;31841245;27;20534;-74
2022/10/02 18:49:54;;;;;;;8.03;4.00;;;;;;;18.40;nan;97301.31;31842332;27;20063;-74
2022/10/02 19:05:21;;;;;;;8.77;3.73;;;;;;;18.59;nan;97430.97;31837660;27;20051;-76
2022/10/02 19:20:34;;;;;;;14.67;4.73;;;;;;;18.24;nan;97151.47;31831395;27;20055;-77
2022/10/02 19:35:43;;;;;;;11.47;5.27;;;;;;;18.46;nan;97474.94;31835024;27;20051;-77
2022/10/02 19:50:50;;;;;;;13.87;5.73;;;;;;;18.02;nan;98495.88;31833243;27;20164;-76
2022/10/02 20:05:57;;;;;;;14.63;5.77;;;;;;;17.36;nan;98500.38;31824362;27;20055;-78
2022/10/02 20:21:10;;;;;;;13.60;6.17;;;;;;;17.56;nan;98534.97;31832155;27;20059;-77
2022/10/02 20:36:21;;;;;;;12.67;6.73;;;;;;;17.18;nan;98572.19;31835410;27;20047;-77
2022/10/02 20:52:04;;;;;;;23.80;11.30;;;;;;;15.96;nan;98578.94;31831368;27;20047;-76
2022/10/02 21:07:11;;;;;;;11.60;5.93;;;;;;;16.26;nan;98600.44;31787102;27;20062;-76
2022/10/02 21:22:40;;;;;;;34.47;16.73;;;;;;;16.12;nan;98669.81;31856422;27;20119;-75
2022/10/02 21:38:19;;;;;;;11.30;5.67;;;;;;;15.72;nan;98753.66;31859045;27;20046;-75
2022/10/02 21:53:39;;;;;;;7.07;4.30;;;;;;;15.92;nan;98882.19;31836712;27;20504;-75
2022/10/02 22:09:03;;;;;;;10.10;5.03;;;;;;;15.97;nan;98919.03;31875940;27;20051;-75
2022/10/02 22:24:41;;;;;;;11.63;5.33;;;;;;;15.48;nan;98944.59;31844402;27;20055;-74
2022/10/02 22:39:57;;;;;;;14.93;6.57;;;;;;;15.26;nan;98932.16;31867898;27;20054;-74
2022/10/02 22:55:11;;;;;;;16.00;6.67;;;;;;;15.11;nan;98953.34;31857216;27;20058;-73
2022/10/02 23:10:19;;;;;;;14.70;6.57;;;;;;;15.05;nan;98977.09;31840658;27;20054;-74
2022/10/02 23:25:42;;;;;;;12.30;5.83;;;;;;;15.68;nan;99002.81;31840656;27;20130;-74
2022/10/02 23:56:21;;;;;;;15.73;5.70;;;;;;;14.75;nan;99011.16;31840103;27;20055;-74
